!

WordPress database error: []
INSERT INTO `metar` (`ID`, `ICAO`, `datetime`, `reading`, `temperature`, `pressure`, `direction`, `direction_varmin`, `direction_varmax`, `windspeed`, `windspeed_gusts`, `created`) VALUES (NULL, 'EDDF', '2017-07-27 02:20:00', 'EDDF 270220Z 19007KT 9000 -RA FEW022 BKN028 BKN040 15/14 Q1009 NOSIG', '15', '1009', '190', '', '', '7', '', '2017-07-27 02:51:49')

METAR RAW:EDDF 270220Z 19007KT 9000 -RA FEW022 BKN028 BKN040 15/14 Q1009 NOSIG
-----------------------------------------------------------------------------------------------------------------------------------------------------------------------------
'datetime':2017-07-27 02:20:00
'ICAO':EDDF
'reading':
'temperature':15
'pressure':1009
'direction':190
'direction_varmin':
'direction_varmax':
'windspeed':7
'windspeed_gusts':
'created':2017-07-27 02:51:49